Skip Navigation Links Skip Navigation Links

Current Weather

Viroqua Muni, Viroqua, Wis.

For information only: do not use for flight planning or navigation.
Latest weather
Observation time Friday, December 3, 2021 3:35 AM CST
Local time Friday, December 3, 2021 3:53 AM CST
Flight conditions Marginal Visual Meteorological Conditions
Winds
Wind direction East (80°)
Wind speed 6 mph
Visibility 10 mi.
Sky condition
Ceiling 2,300 ft. broken clouds
Cloud layer scattered clouds 400 ft.
Cloud layer broken clouds 2,300 ft.
Cloud layer overcast 6,500 ft.
Temperature 33°F
Dewpoint 33°F
Altimeter 30.01 in.Hg
Derived measurements
Relative humidity 100%
Wind chill 28°F
Density altitude -473 ft.
Remarks
Fully automated report.
Automated weather observing station without precipitation discriminator.
METAR KY51 030935Z AUTO 08005KT 10SM SCT004 BKN023 OVC065 01/01 A3001 RMK AO1 T00060006

Settings

Location code

InnerDrive.Weather 4.0.6770.0 Release CLR 4.0.30319.42000
Copyright ©2018 Inner Drive Technology. All rights reserved. Portions Copyright ©1986-2018 David Braverman.

Find weather

Site navigation


Skip Navigation Links

Place info

Page info

PayPal - The safer, easier way to pay online!

Return home.

Copyright ©2021 Inner Drive Technology. Purveyors of fine, hand-crafted computer software. Page printed 2021-12-03T09:53:10 UTC.